sensor_id;sensor_type;location;lat;lon;timestamp;pressure;altitude;pressure_sealevel;temperature;humidity
68141;BME280;54941;52.220;104.306;2022-10-17T00:01:52;97009.44;;;-1.05;95.71
68141;BME280;54941;52.220;104.306;2022-10-17T00:04:19;97013.00;;;-0.96;95.33
68141;BME280;54941;52.220;104.306;2022-10-17T00:06:45;97006.88;;;-0.83;95.38
68141;BME280;54941;52.220;104.306;2022-10-17T00:09:12;97007.78;;;-0.84;94.94
68141;BME280;54941;52.220;104.306;2022-10-17T00:11:38;97005.38;;;-0.74;94.27
68141;BME280;54941;52.220;104.306;2022-10-17T00:14:06;97010.03;;;-0.70;94.43
68141;BME280;54941;52.220;104.306;2022-10-17T00:16:35;97009.28;;;-0.70;94.59
68141;BME280;54941;52.220;104.306;2022-10-17T00:19:02;97001.06;;;-0.63;94.23
68141;BME280;54941;52.220;104.306;2022-10-17T00:21:28;97003.22;;;-0.58;94.44
68141;BME280;54941;52.220;104.306;2022-10-17T00:23:55;97011.03;;;-0.50;93.96
68141;BME280;54941;52.220;104.306;2022-10-17T00:26:21;97003.19;;;-0.47;93.64
68141;BME280;54941;52.220;104.306;2022-10-17T00:28:48;97003.41;;;-0.39;93.24
68141;BME280;54941;52.220;104.306;2022-10-17T00:31:18;97003.72;;;-0.32;93.07
68141;BME280;54941;52.220;104.306;2022-10-17T00:33:46;96998.94;;;-0.26;92.84
68141;BME280;54941;52.220;104.306;2022-10-17T00:36:14;96996.75;;;-0.19;92.17
68141;BME280;54941;52.220;104.306;2022-10-17T00:38:42;96993.59;;;-0.12;91.84
68141;BME280;54941;52.220;104.306;2022-10-17T00:41:11;96988.94;;;-0.07;91.62
68141;BME280;54941;52.220;104.306;2022-10-17T00:43:55;96991.88;;;0.10;90.57
68141;BME280;54941;52.220;104.306;2022-10-17T00:46:28;96991.25;;;0.17;90.42
68141;BME280;54941;52.220;104.306;2022-10-17T00:48:56;96989.44;;;0.29;89.35
68141;BME280;54941;52.220;104.306;2022-10-17T00:51:27;96985.09;;;0.40;88.83
68141;BME280;54941;52.220;104.306;2022-10-17T00:53:55;96987.13;;;0.46;87.98
68141;BME280;54941;52.220;104.306;2022-10-17T00:56:22;96979.72;;;0.64;87.25
68141;BME280;54941;52.220;104.306;2022-10-17T00:58:48;96980.56;;;0.84;86.40
68141;BME280;54941;52.220;104.306;2022-10-17T01:01:15;96976.72;;;0.89;85.41
68141;BME280;54941;52.220;104.306;2022-10-17T01:03:43;96978.75;;;1.15;84.58
68141;BME280;54941;52.220;104.306;2022-10-17T01:06:10;96973.97;;;1.40;83.76
68141;BME280;54941;52.220;104.306;2022-10-17T01:08:36;96983.22;;;2.73;78.93
68141;BME280;54941;52.220;104.306;2022-10-17T01:11:10;96975.94;;;3.32;74.47
68141;BME280;54941;52.220;104.306;2022-10-17T01:13:41;96981.31;;;4.08;71.46
68141;BME280;54941;52.220;104.306;2022-10-17T01:16:15;96975.72;;;4.98;68.69
68141;BME280;54941;52.220;104.306;2022-10-17T01:18:52;96973.22;;;5.22;66.51
68141;BME280;54941;52.220;104.306;2022-10-17T01:21:44;96970.06;;;5.45;64.83
68141;BME280;54941;52.220;104.306;2022-10-17T01:24:46;96965.09;;;5.27;65.59
68141;BME280;54941;52.220;104.306;2022-10-17T01:27:41;96955.25;;;5.64;64.31
68141;BME280;54941;52.220;104.306;2022-10-17T01:33:22;96959.84;;;5.85;63.42
68141;BME280;54941;52.220;104.306;2022-10-17T01:35:57;96960.41;;;6.60;60.19
68141;BME280;54941;52.220;104.306;2022-10-17T01:38:28;96951.56;;;7.09;58.68
68141;BME280;54941;52.220;104.306;2022-10-17T01:41:00;96964.88;;;7.96;55.98
68141;BME280;54941;52.220;104.306;2022-10-17T01:43:33;96958.81;;;7.74;55.71
68141;BME280;54941;52.220;104.306;2022-10-17T01:46:06;96956.75;;;8.29;54.83
68141;BME280;54941;52.220;104.306;2022-10-17T01:48:38;96957.22;;;8.25;54.32
68141;BME280;54941;52.220;104.306;2022-10-17T01:51:08;96951.78;;;8.43;52.68
68141;BME280;54941;52.220;104.306;2022-10-17T01:53:40;96949.75;;;8.38;52.86
68141;BME280;54941;52.220;104.306;2022-10-17T01:56:09;96953.31;;;8.37;52.33
68141;BME280;54941;52.220;104.306;2022-10-17T01:58:40;96952.75;;;8.86;51.40
68141;BME280;54941;52.220;104.306;2022-10-17T02:01:10;96945.50;;;9.89;49.45
68141;BME280;54941;52.220;104.306;2022-10-17T02:03:41;96949.84;;;8.74;51.11
68141;BME280;54941;52.220;104.306;2022-10-17T02:06:08;96958.25;;;9.97;48.86
68141;BME280;54941;52.220;104.306;2022-10-17T02:08:40;96950.63;;;10.38;47.30
68141;BME280;54941;52.220;104.306;2022-10-17T02:11:10;96952.91;;;10.54;46.76
68141;BME280;54941;52.220;104.306;2022-10-17T02:13:51;96945.81;;;11.03;44.35
68141;BME280;54941;52.220;104.306;2022-10-17T02:16:30;96953.25;;;10.79;45.13
68141;BME280;54941;52.220;104.306;2022-10-17T02:19:15;96948.75;;;10.94;45.20
68141;BME280;54941;52.220;104.306;2022-10-17T02:21:49;96939.31;;;11.27;44.57
68141;BME280;54941;52.220;104.306;2022-10-17T02:24:22;96936.47;;;12.02;42.83
68141;BME280;54941;52.220;104.306;2022-10-17T02:26:55;96931.59;;;11.34;43.65
68141;BME280;54941;52.220;104.306;2022-10-17T02:29:27;96921.72;;;10.83;44.25
68141;BME280;54941;52.220;104.306;2022-10-17T02:31:59;96911.72;;;10.26;45.93
68141;BME280;54941;52.220;104.306;2022-10-17T02:34:32;96913.22;;;10.89;44.74
68141;BME280;54941;52.220;104.306;2022-10-17T02:37:04;96904.06;;;12.84;40.16
68141;BME280;54941;52.220;104.306;2022-10-17T02:39:32;96908.81;;;12.16;40.97
68141;BME280;54941;52.220;104.306;2022-10-17T02:42:04;96909.03;;;11.88;41.42
68141;BME280;54941;52.220;104.306;2022-10-17T02:44:31;96901.06;;;11.70;42.40
68141;BME280;54941;52.220;104.306;2022-10-17T02:47:03;96891.09;;;11.28;43.08
68141;BME280;54941;52.220;104.306;2022-10-17T02:49:37;96900.06;;;11.64;41.96
68141;BME280;54941;52.220;104.306;2022-10-17T02:52:09;96899.59;;;12.46;40.30
68141;BME280;54941;52.220;104.306;2022-10-17T02:54:41;96898.22;;;12.50;40.40
68141;BME280;54941;52.220;104.306;2022-10-17T02:57:13;96895.53;;;12.77;39.74
68141;BME280;54941;52.220;104.306;2022-10-17T02:59:43;96885.69;;;12.47;40.19
68141;BME280;54941;52.220;104.306;2022-10-17T03:02:11;96888.72;;;14.07;37.33
68141;BME280;54941;52.220;104.306;2022-10-17T03:04:42;96887.13;;;12.30;40.07
68141;BME280;54941;52.220;104.306;2022-10-17T03:07:08;96888.91;;;12.30;40.67
68141;BME280;54941;52.220;104.306;2022-10-17T03:09:34;96880.06;;;13.08;39.42
68141;BME280;54941;52.220;104.306;2022-10-17T03:12:01;96877.53;;;13.89;37.06
68141;BME280;54941;52.220;104.306;2022-10-17T03:14:27;96870.91;;;13.68;38.61
68141;BME280;54941;52.220;104.306;2022-10-17T03:16:54;96865.91;;;14.16;35.91
68141;BME280;54941;52.220;104.306;2022-10-17T03:19:20;96863.22;;;14.04;36.16
68141;BME280;54941;52.220;104.306;2022-10-17T03:21:48;96864.31;;;13.47;36.97
68141;BME280;54941;52.220;104.306;2022-10-17T03:24:15;96863.47;;;12.33;38.14
68141;BME280;54941;52.220;104.306;2022-10-17T03:26:41;96859.44;;;12.44;37.71
68141;BME280;54941;52.220;104.306;2022-10-17T03:29:07;96857.13;;;13.18;36.69
68141;BME280;54941;52.220;104.306;2022-10-17T03:31:34;96840.28;;;13.02;36.32
68141;BME280;54941;52.220;104.306;2022-10-17T03:34:01;96841.03;;;12.72;37.15
68141;BME280;54941;52.220;104.306;2022-10-17T03:36:28;96845.00;;;13.43;36.43
68141;BME280;54941;52.220;104.306;2022-10-17T03:38:56;96837.81;;;14.31;34.29
68141;BME280;54941;52.220;104.306;2022-10-17T03:41:22;96829.84;;;13.47;34.89
68141;BME280;54941;52.220;104.306;2022-10-17T03:43:48;96838.13;;;12.55;36.84
68141;BME280;54941;52.220;104.306;2022-10-17T03:46:17;96837.13;;;12.94;36.53
68141;BME280;54941;52.220;104.306;2022-10-17T03:48:43;96826.41;;;12.90;36.11
68141;BME280;54941;52.220;104.306;2022-10-17T03:51:10;96826.34;;;13.03;35.58
68141;BME280;54941;52.220;104.306;2022-10-17T03:53:37;96830.00;;;12.89;35.89
68141;BME280;54941;52.220;104.306;2022-10-17T03:56:12;96814.75;;;13.12;35.87
68141;BME280;54941;52.220;104.306;2022-10-17T03:58:39;96799.66;;;12.20;37.25
68141;BME280;54941;52.220;104.306;2022-10-17T04:01:06;96795.41;;;11.82;38.03
68141;BME280;54941;52.220;104.306;2022-10-17T04:03:33;96807.31;;;11.69;38.61
68141;BME280;54941;52.220;104.306;2022-10-17T04:06:00;96800.56;;;11.16;38.67
68141;BME280;54941;52.220;104.306;2022-10-17T04:08:28;96788.66;;;11.74;38.15
68141;BME280;54941;52.220;104.306;2022-10-17T04:10:57;96786.22;;;10.67;39.70
68141;BME280;54941;52.220;104.306;2022-10-17T04:13:26;96782.84;;;10.73;40.03
68141;BME280;54941;52.220;104.306;2022-10-17T04:15:56;96780.72;;;11.03;39.25
68141;BME280;54941;52.220;104.306;2022-10-17T04:18:23;96785.66;;;10.85;39.62
68141;BME280;54941;52.220;104.306;2022-10-17T04:20:50;96777.75;;;10.93;38.96
68141;BME280;54941;52.220;104.306;2022-10-17T04:23:17;96773.13;;;10.75;39.15
68141;BME280;54941;52.220;104.306;2022-10-17T04:25:43;96774.47;;;10.52;39.79
68141;BME280;54941;52.220;104.306;2022-10-17T04:28:10;96774.53;;;10.91;38.94
68141;BME280;54941;52.220;104.306;2022-10-17T04:30:38;96762.44;;;10.92;38.86
68141;BME280;54941;52.220;104.306;2022-10-17T04:33:05;96759.06;;;10.71;41.18
68141;BME280;54941;52.220;104.306;2022-10-17T04:35:31;96745.59;;;11.09;42.18
68141;BME280;54941;52.220;104.306;2022-10-17T04:37:58;96749.72;;;10.70;43.31
68141;BME280;54941;52.220;104.306;2022-10-17T04:40:24;96741.81;;;10.85;43.58
68141;BME280;54941;52.220;104.306;2022-10-17T04:42:51;96748.94;;;11.42;42.17
68141;BME280;54941;52.220;104.306;2022-10-17T04:45:18;96746.88;;;12.03;40.07
68141;BME280;54941;52.220;104.306;2022-10-17T04:47:46;96736.97;;;11.87;38.02
68141;BME280;54941;52.220;104.306;2022-10-17T04:50:12;96738.69;;;12.06;39.80
68141;BME280;54941;52.220;104.306;2022-10-17T04:52:39;96733.91;;;10.93;42.45
68141;BME280;54941;52.220;104.306;2022-10-17T04:55:06;96726.34;;;11.05;42.75
68141;BME280;54941;52.220;104.306;2022-10-17T04:57:33;96727.69;;;10.48;43.63
68141;BME280;54941;52.220;104.306;2022-10-17T05:00:00;96733.41;;;10.50;43.89
68141;BME280;54941;52.220;104.306;2022-10-17T05:02:27;96723.44;;;10.27;44.49
68141;BME280;54941;52.220;104.306;2022-10-17T05:04:54;96720.44;;;10.17;44.74
68141;BME280;54941;52.220;104.306;2022-10-17T05:07:21;96720.69;;;9.88;45.96
68141;BME280;54941;52.220;104.306;2022-10-17T05:09:47;96727.34;;;9.69;46.62
68141;BME280;54941;52.220;104.306;2022-10-17T05:12:14;96725.47;;;9.91;45.23
68141;BME280;54941;52.220;104.306;2022-10-17T05:14:40;96686.16;;;9.69;45.88
68141;BME280;54941;52.220;104.306;2022-10-17T05:17:07;96711.69;;;9.64;44.83
68141;BME280;54941;52.220;104.306;2022-10-17T05:19:33;96693.47;;;9.32;45.69
68141;BME280;54941;52.220;104.306;2022-10-17T05:22:01;96699.41;;;9.32;45.83
68141;BME280;54941;52.220;104.306;2022-10-17T05:24:28;96692.91;;;9.36;46.21
68141;BME280;54941;52.220;104.306;2022-10-17T05:26:55;96682.25;;;9.39;46.04
68141;BME280;54941;52.220;104.306;2022-10-17T05:29:24;96681.13;;;9.55;45.37
68141;BME280;54941;52.220;104.306;2022-10-17T05:31:51;96676.22;;;9.60;45.31
68141;BME280;54941;52.220;104.306;2022-10-17T05:34:18;96675.47;;;9.32;45.81
68141;BME280;54941;52.220;104.306;2022-10-17T05:36:44;96673.25;;;9.56;44.90
68141;BME280;54941;52.220;104.306;2022-10-17T05:39:12;96676.25;;;9.66;44.59
68141;BME280;54941;52.220;104.306;2022-10-17T05:41:39;96668.38;;;9.74;44.22
68141;BME280;54941;52.220;104.306;2022-10-17T05:44:05;96673.28;;;9.69;44.44
68141;BME280;54941;52.220;104.306;2022-10-17T05:46:32;96667.13;;;9.23;44.68
68141;BME280;54941;52.220;104.306;2022-10-17T05:48:58;96683.78;;;9.27;44.43
68141;BME280;54941;52.220;104.306;2022-10-17T05:51:24;96649.50;;;8.92;44.88
68141;BME280;54941;52.220;104.306;2022-10-17T05:53:51;96656.63;;;8.90;45.00
68141;BME280;54941;52.220;104.306;2022-10-17T05:56:19;96660.59;;;8.93;45.12
68141;BME280;54941;52.220;104.306;2022-10-17T05:58:45;96640.69;;;9.01;45.15
68141;BME280;54941;52.220;104.306;2022-10-17T06:01:12;96641.34;;;9.16;45.22
68141;BME280;54941;52.220;104.306;2022-10-17T06:03:38;96637.09;;;9.30;45.43
68141;BME280;54941;52.220;104.306;2022-10-17T06:06:06;96636.13;;;9.31;45.13
68141;BME280;54941;52.220;104.306;2022-10-17T06:08:33;96631.84;;;9.17;42.89
68141;BME280;54941;52.220;104.306;2022-10-17T06:11:00;96634.81;;;9.14;43.98
68141;BME280;54941;52.220;104.306;2022-10-17T06:13:28;96623.44;;;9.29;44.12
68141;BME280;54941;52.220;104.306;2022-10-17T06:15:54;96626.16;;;9.21;44.36
68141;BME280;54941;52.220;104.306;2022-10-17T06:18:21;96618.00;;;9.11;44.40
68141;BME280;54941;52.220;104.306;2022-10-17T06:20:48;96621.00;;;9.21;44.51
68141;BME280;54941;52.220;104.306;2022-10-17T06:23:14;96603.47;;;8.97;44.62
68141;BME280;54941;52.220;104.306;2022-10-17T06:25:40;96602.47;;;8.98;44.11
68141;BME280;54941;52.220;104.306;2022-10-17T06:28:07;96598.19;;;9.05;44.61
68141;BME280;54941;52.220;104.306;2022-10-17T06:30:36;96602.22;;;9.21;43.96
68141;BME280;54941;52.220;104.306;2022-10-17T06:33:03;96591.63;;;9.03;44.03
68141;BME280;54941;52.220;104.306;2022-10-17T06:35:29;96590.34;;;8.86;44.46
68141;BME280;54941;52.220;104.306;2022-10-17T06:37:56;96581.72;;;9.00;44.32
68141;BME280;54941;52.220;104.306;2022-10-17T06:40:22;96580.78;;;9.07;44.52
68141;BME280;54941;52.220;104.306;2022-10-17T06:42:49;96580.72;;;8.94;44.04
68141;BME280;54941;52.220;104.306;2022-10-17T06:45:15;96578.31;;;8.93;44.66
68141;BME280;54941;52.220;104.306;2022-10-17T06:47:43;96573.63;;;9.03;44.75
68141;BME280;54941;52.220;104.306;2022-10-17T06:50:10;96567.59;;;8.83;44.83
68141;BME280;54941;52.220;104.306;2022-10-17T06:52:36;96553.94;;;8.82;45.14
68141;BME280;54941;52.220;104.306;2022-10-17T06:55:03;96559.63;;;8.71;44.83
68141;BME280;54941;52.220;104.306;2022-10-17T06:57:30;96562.47;;;8.83;45.24
68141;BME280;54941;52.220;104.306;2022-10-17T06:59:56;96556.31;;;8.84;44.72
68141;BME280;54941;52.220;104.306;2022-10-17T07:02:22;96557.91;;;8.85;45.27
68141;BME280;54941;52.220;104.306;2022-10-17T07:04:50;96565.25;;;8.88;45.67
68141;BME280;54941;52.220;104.306;2022-10-17T07:07:17;96548.28;;;8.65;45.92
68141;BME280;54941;52.220;104.306;2022-10-17T07:09:43;96548.53;;;8.70;46.31
68141;BME280;54941;52.220;104.306;2022-10-17T07:12:10;96532.94;;;8.72;46.25
68141;BME280;54941;52.220;104.306;2022-10-17T07:14:36;96530.97;;;8.74;45.89
68141;BME280;54941;52.220;104.306;2022-10-17T07:17:03;96535.88;;;8.69;45.64
68141;BME280;54941;52.220;104.306;2022-10-17T07:19:29;96539.84;;;8.71;46.23
68141;BME280;54941;52.220;104.306;2022-10-17T07:21:57;96532.94;;;8.72;46.81
68141;BME280;54941;52.220;104.306;2022-10-17T07:24:23;96520.00;;;8.59;47.32
68141;BME280;54941;52.220;104.306;2022-10-17T07:26:50;96522.00;;;8.63;46.35
68141;BME280;54941;52.220;104.306;2022-10-17T07:29:16;96515.53;;;8.67;46.11
68141;BME280;54941;52.220;104.306;2022-10-17T07:31:42;96525.13;;;8.59;46.54
68141;BME280;54941;52.220;104.306;2022-10-17T07:34:09;96525.38;;;8.64;46.52
68141;BME280;54941;52.220;104.306;2022-10-17T07:36:35;96528.78;;;8.71;47.04
68141;BME280;54941;52.220;104.306;2022-10-17T07:39:03;96519.34;;;8.50;47.13
68141;BME280;54941;52.220;104.306;2022-10-17T07:41:30;96508.50;;;8.55;46.89
68141;BME280;54941;52.220;104.306;2022-10-17T07:43:56;96515.28;;;8.62;46.99
68141;BME280;54941;52.220;104.306;2022-10-17T07:46:23;96510.34;;;8.61;46.94
68141;BME280;54941;52.220;104.306;2022-10-17T07:48:49;96497.69;;;8.59;47.86
68141;BME280;54941;52.220;104.306;2022-10-17T07:51:16;96507.53;;;8.56;47.83
68141;BME280;54941;52.220;104.306;2022-10-17T07:53:42;96508.53;;;8.61;47.45
68141;BME280;54941;52.220;104.306;2022-10-17T07:56:10;96502.19;;;8.57;47.21
68141;BME280;54941;52.220;104.306;2022-10-17T07:58:37;96502.41;;;8.56;47.62
68141;BME280;54941;52.220;104.306;2022-10-17T08:01:06;96493.47;;;8.52;48.16
68141;BME280;54941;52.220;104.306;2022-10-17T08:03:33;96483.50;;;8.36;48.22
68141;BME280;54941;52.220;104.306;2022-10-17T08:06:00;96488.69;;;8.42;48.27
68141;BME280;54941;52.220;104.306;2022-10-17T08:08:27;96487.66;;;8.37;47.45
68141;BME280;54941;52.220;104.306;2022-10-17T08:10:54;96485.41;;;8.27;48.16
68141;BME280;54941;52.220;104.306;2022-10-17T08:13:22;96486.44;;;8.32;47.74
68141;BME280;54941;52.220;104.306;2022-10-17T08:15:49;96489.81;;;8.33;47.64
68141;BME280;54941;52.220;104.306;2022-10-17T08:18:15;96491.63;;;8.39;43.49
68141;BME280;54941;52.220;104.306;2022-10-17T08:20:42;96489.28;;;8.44;41.83
68141;BME280;54941;52.220;104.306;2022-10-17T08:23:08;96482.97;;;8.47;41.52
68141;BME280;54941;52.220;104.306;2022-10-17T08:25:37;96481.72;;;8.36;41.85
68141;BME280;54941;52.220;104.306;2022-10-17T08:28:03;96484.06;;;8.31;41.83
68141;BME280;54941;52.220;104.306;2022-10-17T08:30:31;96480.03;;;8.22;42.09
68141;BME280;54941;52.220;104.306;2022-10-17T08:32:58;96478.25;;;8.22;42.12
68141;BME280;54941;52.220;104.306;2022-10-17T08:35:24;96475.50;;;8.24;42.11
68141;BME280;54941;52.220;104.306;2022-10-17T08:37:51;96463.19;;;8.13;42.44
68141;BME280;54941;52.220;104.306;2022-10-17T08:40:21;96466.09;;;8.10;42.89
68141;BME280;54941;52.220;104.306;2022-10-17T08:43:13;96467.78;;;7.96;43.21
68141;BME280;54941;52.220;104.306;2022-10-17T08:45:46;96466.56;;;7.92;43.18
68141;BME280;54941;52.220;104.306;2022-10-17T08:48:17;96474.63;;;7.89;43.28
68141;BME280;54941;52.220;104.306;2022-10-17T08:50:49;96470.06;;;7.84;43.20
68141;BME280;54941;52.220;104.306;2022-10-17T08:53:19;96472.47;;;7.65;43.58
68141;BME280;54941;52.220;104.306;2022-10-17T08:55:48;96459.19;;;7.61;43.96
68141;BME280;54941;52.220;104.306;2022-10-17T08:58:20;96473.25;;;7.65;43.83
68141;BME280;54941;52.220;104.306;2022-10-17T09:00:52;96465.59;;;7.51;44.01
68141;BME280;54941;52.220;104.306;2022-10-17T09:03:31;96470.56;;;7.52;44.05
68141;BME280;54941;52.220;104.306;2022-10-17T09:06:11;96466.50;;;7.43;44.63
68141;BME280;54941;52.220;104.306;2022-10-17T09:08:45;96460.03;;;7.26;44.74
68141;BME280;54941;52.220;104.306;2022-10-17T09:11:23;96460.94;;;7.18;45.32
68141;BME280;54941;52.220;104.306;2022-10-17T09:14:03;96454.53;;;7.08;45.59
68141;BME280;54941;52.220;104.306;2022-10-17T09:16:48;96452.59;;;6.95;45.96
68141;BME280;54941;52.220;104.306;2022-10-17T09:19:22;96453.50;;;6.88;46.36
68141;BME280;54941;52.220;104.306;2022-10-17T09:21:52;96455.97;;;6.81;46.70
68141;BME280;54941;52.220;104.306;2022-10-17T09:24:36;96458.47;;;6.74;47.09
68141;BME280;54941;52.220;104.306;2022-10-17T09:27:05;96459.28;;;6.60;47.45
68141;BME280;54941;52.220;104.306;2022-10-17T09:29:38;96462.88;;;6.51;47.93
68141;BME280;54941;52.220;104.306;2022-10-17T09:32:12;96455.66;;;6.40;48.23
68141;BME280;54941;52.220;104.306;2022-10-17T09:34:40;96458.03;;;6.27;48.01
68141;BME280;54941;52.220;104.306;2022-10-17T09:37:12;96456.16;;;6.21;47.96
68141;BME280;54941;52.220;104.306;2022-10-17T09:39:39;96457.38;;;6.10;48.67
68141;BME280;54941;52.220;104.306;2022-10-17T09:42:05;96456.78;;;6.08;48.78
68141;BME280;54941;52.220;104.306;2022-10-17T09:44:38;96449.88;;;5.94;48.58
68141;BME280;54941;52.220;104.306;2022-10-17T09:47:21;96449.63;;;5.81;49.26
68141;BME280;54941;52.220;104.306;2022-10-17T09:49:51;96442.03;;;5.73;49.54
68141;BME280;54941;52.220;104.306;2022-10-17T09:52:19;96443.06;;;5.64;49.57
68141;BME280;54941;52.220;104.306;2022-10-17T09:54:48;96436.88;;;5.58;49.61
68141;BME280;54941;52.220;104.306;2022-10-17T09:57:17;96440.47;;;5.49;50.36
68141;BME280;54941;52.220;104.306;2022-10-17T09:59:45;96435.06;;;5.44;50.77
68141;BME280;54941;52.220;104.306;2022-10-17T10:02:21;96433.53;;;5.35;51.02
68141;BME280;54941;52.220;104.306;2022-10-17T10:04:58;96439.06;;;5.24;51.38
68141;BME280;54941;52.220;104.306;2022-10-17T10:07:26;96445.34;;;5.13;51.78
68141;BME280;54941;52.220;104.306;2022-10-17T10:09:53;96449.03;;;5.11;52.27
68141;BME280;54941;52.220;104.306;2022-10-17T10:12:22;96446.03;;;4.99;52.26
68141;BME280;54941;52.220;104.306;2022-10-17T10:14:49;96442.41;;;4.94;53.28
68141;BME280;54941;52.220;104.306;2022-10-17T10:17:35;96435.25;;;4.89;53.48
68141;BME280;54941;52.220;104.306;2022-10-17T10:20:23;96433.19;;;4.84;53.92
68141;BME280;54941;52.220;104.306;2022-10-17T10:23:05;96436.09;;;4.81;54.17
68141;BME280;54941;52.220;104.306;2022-10-17T10:25:31;96425.63;;;4.68;55.15
68141;BME280;54941;52.220;104.306;2022-10-17T10:27:58;96428.22;;;4.60;55.16
68141;BME280;54941;52.220;104.306;2022-10-17T10:30:29;96429.06;;;4.45;56.07
68141;BME280;54941;52.220;104.306;2022-10-17T10:32:58;96422.09;;;4.30;56.53
68141;BME280;54941;52.220;104.306;2022-10-17T10:35:30;96429.31;;;4.11;57.03
68141;BME280;54941;52.220;104.306;2022-10-17T10:37:58;96435.09;;;3.97;57.59
68141;BME280;54941;52.220;104.306;2022-10-17T10:40:29;96425.56;;;3.90;58.58
68141;BME280;54941;52.220;104.306;2022-10-17T10:42:58;96430.97;;;3.87;58.59
68141;BME280;54941;52.220;104.306;2022-10-17T10:45:28;96421.53;;;3.96;58.94
68141;BME280;54941;52.220;104.306;2022-10-17T10:47:57;96419.78;;;3.97;59.01
68141;BME280;54941;52.220;104.306;2022-10-17T10:50:28;96415.22;;;3.84;59.81
68141;BME280;54941;52.220;104.306;2022-10-17T10:53:08;96421.19;;;4.07;59.73
68141;BME280;54941;52.220;104.306;2022-10-17T10:55:43;96413.91;;;3.96;59.80
68141;BME280;54941;52.220;104.306;2022-10-17T10:58:22;96403.69;;;3.96;60.20
68141;BME280;54941;52.220;104.306;2022-10-17T11:00:52;96407.22;;;3.87;60.72
68141;BME280;54941;52.220;104.306;2022-10-17T11:03:27;96408.50;;;3.91;60.57
68141;BME280;54941;52.220;104.306;2022-10-17T11:05:57;96412.66;;;3.84;61.41
68141;BME280;54941;52.220;104.306;2022-10-17T11:08:28;96411.72;;;3.77;61.57
68141;BME280;54941;52.220;104.306;2022-10-17T11:11:04;96411.41;;;3.64;62.11
68141;BME280;54941;52.220;104.306;2022-10-17T11:13:38;96405.34;;;3.65;62.65
68141;BME280;54941;52.220;104.306;2022-10-17T11:16:19;96400.88;;;3.67;62.44
68141;BME280;54941;52.220;104.306;2022-10-17T11:18:51;96405.50;;;3.63;62.54
68141;BME280;54941;52.220;104.306;2022-10-17T11:21:25;96402.81;;;3.49;62.86
68141;BME280;54941;52.220;104.306;2022-10-17T11:23:59;96398.50;;;3.49;63.08
68141;BME280;54941;52.220;104.306;2022-10-17T11:26:30;96405.53;;;3.47;63.60
68141;BME280;54941;52.220;104.306;2022-10-17T11:29:00;96398.50;;;3.49;63.57
68141;BME280;54941;52.220;104.306;2022-10-17T11:31:30;96393.88;;;3.53;63.67
68141;BME280;54941;52.220;104.306;2022-10-17T11:34:03;96388.47;;;3.48;63.95
68141;BME280;54941;52.220;104.306;2022-10-17T11:36:36;96398.03;;;3.46;64.38
68141;BME280;54941;52.220;104.306;2022-10-17T11:39:08;96398.66;;;3.48;64.70
68141;BME280;54941;52.220;104.306;2022-10-17T11:41:40;96390.53;;;3.44;64.95
68141;BME280;54941;52.220;104.306;2022-10-17T11:44:16;96393.88;;;3.44;65.45
68141;BME280;54941;52.220;104.306;2022-10-17T11:46:46;96392.31;;;3.43;65.25
68141;BME280;54941;52.220;104.306;2022-10-17T11:49:17;96383.53;;;3.46;65.33
68141;BME280;54941;52.220;104.306;2022-10-17T11:51:48;96394.53;;;3.47;65.02
68141;BME280;54941;52.220;104.306;2022-10-17T11:54:23;96391.66;;;3.41;65.08
68141;BME280;54941;52.220;104.306;2022-10-17T11:56:56;96386.88;;;3.38;65.16
68141;BME280;54941;52.220;104.306;2022-10-17T11:59:44;96391.03;;;3.39;65.40
68141;BME280;54941;52.220;104.306;2022-10-17T12:02:19;96391.34;;;3.36;65.43
68141;BME280;54941;52.220;104.306;2022-10-17T12:04:55;96385.00;;;3.32;65.01
68141;BME280;54941;52.220;104.306;2022-10-17T12:07:28;96380.97;;;3.22;65.50
68141;BME280;54941;52.220;104.306;2022-10-17T12:10:05;96377.81;;;3.20;65.60
68141;BME280;54941;52.220;104.306;2022-10-17T12:12:34;96376.53;;;3.24;65.78
68141;BME280;54941;52.220;104.306;2022-10-17T12:18:03;96371.91;;;3.19;65.76
68141;BME280;54941;52.220;104.306;2022-10-17T12:20:34;96371.44;;;3.16;65.71
68141;BME280;54941;52.220;104.306;2022-10-17T12:23:04;96372.41;;;3.23;65.73
68141;BME280;54941;52.220;104.306;2022-10-17T12:25:48;96372.41;;;3.23;65.52
68141;BME280;54941;52.220;104.306;2022-10-17T12:28:16;96370.19;;;3.20;65.49
68141;BME280;54941;52.220;104.306;2022-10-17T12:30:53;96366.66;;;3.29;65.59
68141;BME280;54941;52.220;104.306;2022-10-17T12:33:24;96364.59;;;3.24;65.46
68141;BME280;54941;52.220;104.306;2022-10-17T12:42:47;96361.88;;;3.26;65.74
68141;BME280;54941;52.220;104.306;2022-10-17T12:45:44;96349.31;;;3.16;66.23
68141;BME280;54941;52.220;104.306;2022-10-17T12:48:10;96345.97;;;3.08;66.88
68141;BME280;54941;52.220;104.306;2022-10-17T12:51:00;96358.38;;;3.11;66.94
68141;BME280;54941;52.220;104.306;2022-10-17T12:53:36;96352.97;;;2.98;67.43
68141;BME280;54941;52.220;104.306;2022-10-17T12:56:06;96346.94;;;2.99;67.69
68141;BME280;54941;52.220;104.306;2022-10-17T12:58:34;96338.50;;;2.98;67.94
68141;BME280;54941;52.220;104.306;2022-10-17T13:01:01;96335.94;;;2.90;68.20
68141;BME280;54941;52.220;104.306;2022-10-17T13:03:32;96340.56;;;2.86;68.50
68141;BME280;54941;52.220;104.306;2022-10-17T13:06:01;96336.28;;;2.95;68.60
68141;BME280;54941;52.220;104.306;2022-10-17T13:08:30;96332.13;;;2.94;68.89
68141;BME280;54941;52.220;104.306;2022-10-17T13:10:58;96331.66;;;2.90;69.07
68141;BME280;54941;52.220;104.306;2022-10-17T13:13:34;96325.59;;;2.83;69.28
68141;BME280;54941;52.220;104.306;2022-10-17T13:16:01;96326.69;;;2.81;69.54